Time,TemperatureF,DewpointF,PressureIn,WindDirection,WindDirectionDegrees,WindSpeedMPH,WindSpeedGustMPH,Humidity,HourlyPrecipIn,Conditions,Clouds,dailyrainin,SoftwareType,DateUTC
2013-05-24 20:49:00,72.0,52.4,30.18,WNW,295,0.0,0.0,50,0.47,,,0.00,VWS V14.01,2013-05-25 00:49:00,
2013-05-24 20:54:00,71.3,52.3,30.19,NW,314,0.0,0.0,51,0.47,,,0.00,VWS V14.01,2013-05-25 00:54:00,
2013-05-24 20:59:00,70.6,52.1,30.19,North,355,0.0,1.0,52,0.47,,,0.00,VWS V14.01,2013-05-25 00:59:00,
2013-05-24 21:04:00,70.1,53.2,30.19,North,355,0.0,1.0,55,0.00,,,0.00,VWS V14.01,2013-05-25 01:04:00,
2013-05-24 21:09:00,69.5,52.6,30.19,NNW,338,0.0,1.0,55,0.00,,,0.00,VWS V14.01,2013-05-25 01:09:00,
2013-05-24 21:14:00,69.3,53.0,30.19,NNW,338,0.0,1.0,56,0.00,,,0.00,VWS V14.01,2013-05-25 01:14:00,
2013-05-24 21:19:00,69.0,52.7,30.19,NNW,338,0.0,1.0,56,0.00,,,0.00,VWS V14.01,2013-05-25 01:19:00,
2013-05-24 21:24:00,68.7,52.9,30.20,NNW,338,0.0,1.0,57,0.00,,,0.00,VWS V14.01,2013-05-25 01:24:00,
2013-05-24 21:29:00,68.2,56.4,30.19,NNW,339,0.0,1.0,66,0.00,,,0.00,VWS V14.01,2013-05-25 01:29:00,
2013-05-24 21:34:00,67.5,57.0,30.20,NNW,338,0.0,0.0,69,0.00,,,0.00,VWS V14.01,2013-05-25 01:34:00,
2013-05-24 21:39:00,66.7,55.4,30.20,NNW,338,0.0,0.0,67,0.00,,,0.00,VWS V14.01,2013-05-25 01:39:00,
2013-05-24 21:44:00,66.2,53.7,30.20,NNW,338,0.0,0.0,64,0.00,,,0.00,VWS V14.01,2013-05-25 01:44:00,
2013-05-24 21:49:00,66.1,53.6,30.20,NNW,339,0.0,0.0,64,0.00,,,0.00,VWS V14.01,2013-05-25 01:49:00,
2013-05-24 21:54:00,65.9,54.2,30.20,NNW,338,0.0,0.0,66,0.00,,,0.00,VWS V14.01,2013-05-25 01:54:00,
2013-05-24 21:59:00,65.7,54.0,30.21,NNW,338,0.0,0.0,66,0.00,,,0.00,VWS V14.01,2013-05-25 01:59:00,
2013-05-24 22:04:00,65.4,53.8,30.21,NNW,338,0.0,0.0,66,0.00,,,0.00,VWS V14.01,2013-05-25 02:04:00,
2013-05-24 22:09:00,65.0,53.4,30.22,NNW,338,0.0,0.0,66,0.00,,,0.00,VWS V14.01,2013-05-25 02:09:00,
2013-05-24 22:14:00,64.7,53.9,30.22,NNW,339,0.0,0.0,68,0.00,,,0.00,VWS V14.01,2013-05-25 02:14:00,
2013-05-24 22:19:00,64.4,54.0,30.22,NNW,338,0.0,0.0,69,0.00,,,0.00,VWS V14.01,2013-05-25 02:19:00,
2013-05-24 22:24:00,64.1,54.1,30.22,NNW,338,0.0,0.0,70,0.00,,,0.00,VWS V14.01,2013-05-25 02:24:00,
2013-05-24 22:29:00,63.7,53.0,30.22,NNW,338,0.0,0.0,68,0.00,,,0.00,VWS V14.01,2013-05-25 02:29:00,
2013-05-24 22:34:00,63.5,53.5,30.23,NNW,338,0.0,0.0,70,0.00,,,0.00,VWS V14.01,2013-05-25 02:34:00,
2013-05-24 22:39:00,63.1,53.6,30.23,NNW,339,0.0,0.0,71,0.00,,,0.00,VWS V14.01,2013-05-25 02:39:00,
2013-05-24 22:44:00,62.7,53.5,30.23,NW,323,0.0,0.0,72,0.00,,,0.00,VWS V14.01,2013-05-25 02:44:00,
2013-05-24 22:49:00,62.9,53.4,30.23,NW,323,0.0,0.0,71,0.00,,,0.00,VWS V14.01,2013-05-25 02:49:00,
2013-05-24 22:54:00,63.5,53.5,30.23,North,353,0.0,1.0,70,0.00,,,0.00,VWS V14.01,2013-05-25 02:54:00,
2013-05-24 22:59:00,64.2,53.4,30.24,NW,308,0.0,1.0,68,0.00,,,0.00,VWS V14.01,2013-05-25 02:59:00,
2013-05-24 23:04:00,64.7,53.1,30.24,NW,323,0.0,0.0,66,0.00,,,0.00,VWS V14.01,2013-05-25 03:04:00,
2013-05-24 23:08:00,65.2,53.2,30.24,NNW,330,0.0,2.0,65,0.00,,,0.00,VWS V14.01,2013-05-25 03:08:00,
2013-05-24 23:13:00,65.3,52.8,30.24,North,351,0.0,2.0,64,0.00,,,0.00,VWS V14.01,2013-05-25 03:13:00,
2013-05-24 23:18:00,65.2,52.7,30.24,NW,324,0.0,2.0,64,0.00,,,0.00,VWS V14.01,2013-05-25 03:18:00,
2013-05-24 23:23:00,65.2,52.7,30.24,WNW,295,0.0,2.0,64,0.00,,,0.00,VWS V14.01,2013-05-25 03:23:00,
2013-05-24 23:28:00,65.2,52.7,30.24,NW,305,0.0,2.0,64,0.00,,,0.00,VWS V14.01,2013-05-25 03:28:00,
2013-05-24 23:33:00,65.2,52.7,30.24,NNW,328,0.0,1.0,64,0.00,,,0.00,VWS V14.01,2013-05-25 03:33:00,
2013-05-24 23:38:00,65.0,53.0,30.25,NW,324,0.0,1.0,65,0.00,,,0.00,VWS V14.01,2013-05-25 03:38:00,
2013-05-24 23:43:00,64.8,52.8,30.25,NW,323,1.0,1.0,65,0.00,,,0.00,VWS V14.01,2013-05-25 03:43:00,
2013-05-24 23:48:00,64.9,52.9,30.25,WNW,295,0.0,2.0,65,0.00,,,0.00,VWS V14.01,2013-05-25 03:48:00,
2013-05-24 23:53:00,64.9,52.5,30.25,West,270,0.0,2.0,64,0.00,,,0.00,VWS V14.01,2013-05-25 03:53:00,
2013-05-24 23:58:00,64.7,52.3,30.25,NNW,345,0.0,2.0,64,0.00,,,0.00,VWS V14.01,2013-05-25 03:58:00,